sensor_id;sensor_type;location;lat;lon;timestamp;temperature;humidity
77839;SHT31;67034;43.226;27.932;2023-01-28T00:01:15;5.02;77.18
77839;SHT31;67034;43.226;27.932;2023-01-28T00:03:42;4.90;77.24
77839;SHT31;67034;43.226;27.932;2023-01-28T00:06:09;5.07;76.97
77839;SHT31;67034;43.226;27.932;2023-01-28T00:08:36;4.70;78.20
77839;SHT31;67034;43.226;27.932;2023-01-28T00:11:04;5.08;77.19
77839;SHT31;67034;43.226;27.932;2023-01-28T00:13:30;4.66;78.08
77839;SHT31;67034;43.226;27.932;2023-01-28T00:15:57;4.59;78.62
77839;SHT31;67034;43.226;27.932;2023-01-28T00:18:23;4.69;78.28
77839;SHT31;67034;43.226;27.932;2023-01-28T00:20:56;4.63;78.64
77839;SHT31;67034;43.226;27.932;2023-01-28T00:23:23;4.59;78.65
77839;SHT31;67034;43.226;27.932;2023-01-28T00:25:48;4.64;78.72
77839;SHT31;67034;43.226;27.932;2023-01-28T00:28:14;4.70;78.16
77839;SHT31;67034;43.226;27.932;2023-01-28T00:30:40;4.84;77.49
77839;SHT31;67034;43.226;27.932;2023-01-28T00:33:06;4.87;77.30
77839;SHT31;67034;43.226;27.932;2023-01-28T00:35:31;4.87;77.24
77839;SHT31;67034;43.226;27.932;2023-01-28T00:37:58;4.83;77.28
77839;SHT31;67034;43.226;27.932;2023-01-28T00:40:24;4.74;78.18
77839;SHT31;67034;43.226;27.932;2023-01-28T00:42:50;4.70;78.34
77839;SHT31;67034;43.226;27.932;2023-01-28T00:45:16;4.66;78.60
77839;SHT31;67034;43.226;27.932;2023-01-28T00:47:42;4.74;78.67
77839;SHT31;67034;43.226;27.932;2023-01-28T00:50:10;4.59;78.74
77839;SHT31;67034;43.226;27.932;2023-01-28T00:52:36;4.61;78.91
77839;SHT31;67034;43.226;27.932;2023-01-28T00:55:03;4.80;78.44
77839;SHT31;67034;43.226;27.932;2023-01-28T00:57:29;4.69;79.27
77839;SHT31;67034;43.226;27.932;2023-01-28T00:59:55;4.56;79.00
77839;SHT31;67034;43.226;27.932;2023-01-28T01:02:21;4.50;79.79
77839;SHT31;67034;43.226;27.932;2023-01-28T01:04:47;4.42;79.60
77839;SHT31;67034;43.226;27.932;2023-01-28T01:07:26;4.36;80.17
77839;SHT31;67034;43.226;27.932;2023-01-28T01:10:11;4.36;80.17
77839;SHT31;67034;43.226;27.932;2023-01-28T01:12:37;4.16;80.21
77839;SHT31;67034;43.226;27.932;2023-01-28T01:15:03;4.12;80.66
77839;SHT31;67034;43.226;27.932;2023-01-28T01:17:33;3.94;80.84
77839;SHT31;67034;43.226;27.932;2023-01-28T01:19:59;3.98;80.77
77839;SHT31;67034;43.226;27.932;2023-01-28T01:22:25;3.78;81.49
77839;SHT31;67034;43.226;27.932;2023-01-28T01:24:50;3.87;81.17
77839;SHT31;67034;43.226;27.932;2023-01-28T01:27:17;4.03;80.90
77839;SHT31;67034;43.226;27.932;2023-01-28T01:29:43;3.82;81.64
77839;SHT31;67034;43.226;27.932;2023-01-28T01:32:09;3.94;81.07
77839;SHT31;67034;43.226;27.932;2023-01-28T01:34:35;4.19;79.99
77839;SHT31;67034;43.226;27.932;2023-01-28T01:37:00;4.13;80.56
77839;SHT31;67034;43.226;27.932;2023-01-28T01:39:28;4.16;80.15
77839;SHT31;67034;43.226;27.932;2023-01-28T01:41:53;4.18;79.70
77839;SHT31;67034;43.226;27.932;2023-01-28T01:44:56;4.15;79.36
77839;SHT31;67034;43.226;27.932;2023-01-28T01:47:24;4.23;78.85
77839;SHT31;67034;43.226;27.932;2023-01-28T01:49:53;3.98;79.51
77839;SHT31;67034;43.226;27.932;2023-01-28T01:52:23;3.91;79.59
77839;SHT31;67034;43.226;27.932;2023-01-28T01:54:52;3.91;79.79
77839;SHT31;67034;43.226;27.932;2023-01-28T01:57:23;3.91;79.59
77839;SHT31;67034;43.226;27.932;2023-01-28T01:59:51;3.90;79.34
77839;SHT31;67034;43.226;27.932;2023-01-28T02:02:19;4.06;78.65
77839;SHT31;67034;43.226;27.932;2023-01-28T02:04:45;3.91;79.38
77839;SHT31;67034;43.226;27.932;2023-01-28T02:07:14;3.59;79.56
77839;SHT31;67034;43.226;27.932;2023-01-28T02:09:40;3.53;79.20
77839;SHT31;67034;43.226;27.932;2023-01-28T02:12:10;3.44;79.74
77839;SHT31;67034;43.226;27.932;2023-01-28T02:14:40;3.53;79.60
77839;SHT31;67034;43.226;27.932;2023-01-28T02:17:07;3.40;79.45
77839;SHT31;67034;43.226;27.932;2023-01-28T02:19:36;3.50;79.39
77839;SHT31;67034;43.226;27.932;2023-01-28T02:22:30;3.49;78.19
77839;SHT31;67034;43.226;27.932;2023-01-28T02:25:14;3.37;78.95
77839;SHT31;67034;43.226;27.932;2023-01-28T02:28:05;3.25;79.16
77839;SHT31;67034;43.226;27.932;2023-01-28T02:30:36;3.30;78.97
77839;SHT31;67034;43.226;27.932;2023-01-28T02:33:05;3.32;78.61
77839;SHT31;67034;43.226;27.932;2023-01-28T02:35:38;3.22;78.99
77839;SHT31;67034;43.226;27.932;2023-01-28T02:38:08;3.29;78.19
77839;SHT31;67034;43.226;27.932;2023-01-28T02:40:38;3.05;79.06
77839;SHT31;67034;43.226;27.932;2023-01-28T02:43:34;2.85;79.65
77839;SHT31;67034;43.226;27.932;2023-01-28T02:46:07;3.06;78.96
77839;SHT31;67034;43.226;27.932;2023-01-28T02:48:55;3.02;78.71
77839;SHT31;67034;43.226;27.932;2023-01-28T02:51:34;3.02;78.53
77839;SHT31;67034;43.226;27.932;2023-01-28T02:54:06;2.96;78.90
77839;SHT31;67034;43.226;27.932;2023-01-28T02:56:41;2.87;78.72
77839;SHT31;67034;43.226;27.932;2023-01-28T02:59:16;2.66;79.32
77839;SHT31;67034;43.226;27.932;2023-01-28T03:02:09;2.62;79.94
77839;SHT31;67034;43.226;27.932;2023-01-28T03:04:40;2.57;79.19
77839;SHT31;67034;43.226;27.932;2023-01-28T03:07:08;2.75;78.72
77839;SHT31;67034;43.226;27.932;2023-01-28T03:09:35;2.81;78.61
77839;SHT31;67034;43.226;27.932;2023-01-28T03:12:04;2.53;78.70
77839;SHT31;67034;43.226;27.932;2023-01-28T03:14:54;2.53;78.77
77839;SHT31;67034;43.226;27.932;2023-01-28T03:17:42;2.30;78.90
77839;SHT31;67034;43.226;27.932;2023-01-28T03:20:30;2.40;79.45
77839;SHT31;67034;43.226;27.932;2023-01-28T03:23:21;2.65;78.77
77839;SHT31;67034;43.226;27.932;2023-01-28T03:26:08;2.61;77.80
77839;SHT31;67034;43.226;27.932;2023-01-28T03:28:53;2.50;77.99
77839;SHT31;67034;43.226;27.932;2023-01-28T03:31:41;2.41;77.63
77839;SHT31;67034;43.226;27.932;2023-01-28T03:34:26;2.53;77.16
77839;SHT31;67034;43.226;27.932;2023-01-28T03:37:11;2.26;78.11
77839;SHT31;67034;43.226;27.932;2023-01-28T03:39:39;2.15;78.14
77839;SHT31;67034;43.226;27.932;2023-01-28T03:42:07;1.98;78.25
77839;SHT31;67034;43.226;27.932;2023-01-28T03:44:33;2.15;78.47
77839;SHT31;67034;43.226;27.932;2023-01-28T03:47:19;2.26;78.01
77839;SHT31;67034;43.226;27.932;2023-01-28T03:49:46;2.26;78.03
77839;SHT31;67034;43.226;27.932;2023-01-28T03:52:17;2.55;76.96
77839;SHT31;67034;43.226;27.932;2023-01-28T03:54:43;2.53;76.55
77839;SHT31;67034;43.226;27.932;2023-01-28T03:57:11;2.06;78.68
77839;SHT31;67034;43.226;27.932;2023-01-28T03:59:37;2.06;78.21
77839;SHT31;67034;43.226;27.932;2023-01-28T04:02:03;1.94;78.57
77839;SHT31;67034;43.226;27.932;2023-01-28T04:04:32;2.13;78.14
77839;SHT31;67034;43.226;27.932;2023-01-28T04:06:58;1.94;78.77
77839;SHT31;67034;43.226;27.932;2023-01-28T04:09:24;1.92;79.20
77839;SHT31;67034;43.226;27.932;2023-01-28T04:11:50;2.06;78.62
77839;SHT31;67034;43.226;27.932;2023-01-28T04:14:16;1.91;79.06
77839;SHT31;67034;43.226;27.932;2023-01-28T04:16:42;1.86;79.04
77839;SHT31;67034;43.226;27.932;2023-01-28T04:19:09;1.78;78.92
77839;SHT31;67034;43.226;27.932;2023-01-28T04:21:36;1.76;79.49
77839;SHT31;67034;43.226;27.932;2023-01-28T04:24:01;2.01;78.96
77839;SHT31;67034;43.226;27.932;2023-01-28T04:26:27;2.02;78.32
77839;SHT31;67034;43.226;27.932;2023-01-28T04:28:53;1.86;78.27
77839;SHT31;67034;43.226;27.932;2023-01-28T04:31:19;1.85;78.21
77839;SHT31;67034;43.226;27.932;2023-01-28T04:33:44;1.62;79.24
77839;SHT31;67034;43.226;27.932;2023-01-28T04:36:10;1.68;78.65
77839;SHT31;67034;43.226;27.932;2023-01-28T04:38:37;1.62;78.39
77839;SHT31;67034;43.226;27.932;2023-01-28T04:41:03;1.68;78.52
77839;SHT31;67034;43.226;27.932;2023-01-28T04:43:28;1.57;78.49
77839;SHT31;67034;43.226;27.932;2023-01-28T04:45:54;1.50;78.56
77839;SHT31;67034;43.226;27.932;2023-01-28T04:48:20;1.47;79.04
77839;SHT31;67034;43.226;27.932;2023-01-28T04:50:45;1.57;79.08
77839;SHT31;67034;43.226;27.932;2023-01-28T04:53:11;1.48;79.14
77839;SHT31;67034;43.226;27.932;2023-01-28T04:55:39;1.58;78.92
77839;SHT31;67034;43.226;27.932;2023-01-28T04:58:04;1.51;79.06
77839;SHT31;67034;43.226;27.932;2023-01-28T05:00:30;1.43;79.16
77839;SHT31;67034;43.226;27.932;2023-01-28T05:02:56;1.57;78.74
77839;SHT31;67034;43.226;27.932;2023-01-28T05:05:22;1.62;79.18
77839;SHT31;67034;43.226;27.932;2023-01-28T05:07:51;1.54;78.92
77839;SHT31;67034;43.226;27.932;2023-01-28T05:10:17;1.50;79.40
77839;SHT31;67034;43.226;27.932;2023-01-28T05:12:45;1.38;79.44
77839;SHT31;67034;43.226;27.932;2023-01-28T05:15:11;1.52;79.28
77839;SHT31;67034;43.226;27.932;2023-01-28T05:17:37;1.48;78.98
77839;SHT31;67034;43.226;27.932;2023-01-28T05:20:03;1.33;79.36
77839;SHT31;67034;43.226;27.932;2023-01-28T05:22:29;1.43;78.98
77839;SHT31;67034;43.226;27.932;2023-01-28T05:24:55;1.24;78.75
77839;SHT31;67034;43.226;27.932;2023-01-28T05:27:21;1.45;78.39
77839;SHT31;67034;43.226;27.932;2023-01-28T05:29:48;1.40;78.84
77839;SHT31;67034;43.226;27.932;2023-01-28T05:32:14;1.26;79.17
77839;SHT31;67034;43.226;27.932;2023-01-28T05:34:40;1.28;78.40
77839;SHT31;67034;43.226;27.932;2023-01-28T05:37:05;1.34;78.63
77839;SHT31;67034;43.226;27.932;2023-01-28T05:39:31;1.28;78.74
77839;SHT31;67034;43.226;27.932;2023-01-28T05:41:57;1.44;78.49
77839;SHT31;67034;43.226;27.932;2023-01-28T05:44:22;1.34;78.61
77839;SHT31;67034;43.226;27.932;2023-01-28T05:46:49;1.31;78.64
77839;SHT31;67034;43.226;27.932;2023-01-28T05:49:15;1.36;78.62
77839;SHT31;67034;43.226;27.932;2023-01-28T05:51:41;1.26;78.73
77839;SHT31;67034;43.226;27.932;2023-01-28T05:54:07;1.41;78.47
77839;SHT31;67034;43.226;27.932;2023-01-28T05:56:33;1.40;78.60
77839;SHT31;67034;43.226;27.932;2023-01-28T05:59:01;1.38;78.46
77839;SHT31;67034;43.226;27.932;2023-01-28T06:01:26;1.51;78.66
77839;SHT31;67034;43.226;27.932;2023-01-28T06:03:53;1.41;78.31
77839;SHT31;67034;43.226;27.932;2023-01-28T06:06:19;1.51;77.94
77839;SHT31;67034;43.226;27.932;2023-01-28T06:08:45;1.43;78.18
77839;SHT31;67034;43.226;27.932;2023-01-28T06:11:11;1.43;78.37
77839;SHT31;67034;43.226;27.932;2023-01-28T06:13:36;1.38;78.01
77839;SHT31;67034;43.226;27.932;2023-01-28T06:16:03;1.33;78.00
77839;SHT31;67034;43.226;27.932;2023-01-28T06:18:28;1.47;77.89
77839;SHT31;67034;43.226;27.932;2023-01-28T06:20:55;1.52;77.45
77839;SHT31;67034;43.226;27.932;2023-01-28T06:23:21;1.51;77.03
77839;SHT31;67034;43.226;27.932;2023-01-28T06:25:47;1.51;77.35
77839;SHT31;67034;43.226;27.932;2023-01-28T06:28:12;1.71;77.60
77839;SHT31;67034;43.226;27.932;2023-01-28T06:30:38;1.43;77.73
77839;SHT31;67034;43.226;27.932;2023-01-28T06:33:04;1.34;78.21
77839;SHT31;67034;43.226;27.932;2023-01-28T06:35:31;1.34;78.63
77839;SHT31;67034;43.226;27.932;2023-01-28T06:37:58;1.27;78.54
77839;SHT31;67034;43.226;27.932;2023-01-28T06:40:23;1.30;78.95
77839;SHT31;67034;43.226;27.932;2023-01-28T06:42:50;1.45;78.36
77839;SHT31;67034;43.226;27.932;2023-01-28T06:45:16;1.38;78.23
77839;SHT31;67034;43.226;27.932;2023-01-28T06:47:41;1.48;78.18
77839;SHT31;67034;43.226;27.932;2023-01-28T06:50:08;1.54;78.08
77839;SHT31;67034;43.226;27.932;2023-01-28T06:52:34;1.52;77.86
77839;SHT31;67034;43.226;27.932;2023-01-28T06:55:01;1.48;78.17
77839;SHT31;67034;43.226;27.932;2023-01-28T06:57:27;1.55;78.08
77839;SHT31;67034;43.226;27.932;2023-01-28T06:59:53;1.57;77.76
77839;SHT31;67034;43.226;27.932;2023-01-28T07:02:18;1.59;77.95
77839;SHT31;67034;43.226;27.932;2023-01-28T07:04:44;1.61;77.53
77839;SHT31;67034;43.226;27.932;2023-01-28T07:07:10;1.61;77.70
77839;SHT31;67034;43.226;27.932;2023-01-28T07:09:36;1.58;77.59
77839;SHT31;67034;43.226;27.932;2023-01-28T07:12:03;1.57;78.08
77839;SHT31;67034;43.226;27.932;2023-01-28T07:14:29;1.54;77.46
77839;SHT31;67034;43.226;27.932;2023-01-28T07:16:55;1.54;77.14
77839;SHT31;67034;43.226;27.932;2023-01-28T07:19:21;1.75;77.21
77839;SHT31;67034;43.226;27.932;2023-01-28T07:21:46;1.65;77.23
77839;SHT31;67034;43.226;27.932;2023-01-28T07:24:12;1.75;76.39
77839;SHT31;67034;43.226;27.932;2023-01-28T07:26:38;1.65;75.93
77839;SHT31;67034;43.226;27.932;2023-01-28T07:29:07;1.64;76.17
77839;SHT31;67034;43.226;27.932;2023-01-28T07:31:33;1.71;75.91
77839;SHT31;67034;43.226;27.932;2023-01-28T07:33:59;1.75;75.35
77839;SHT31;67034;43.226;27.932;2023-01-28T07:36:24;1.83;75.40
77839;SHT31;67034;43.226;27.932;2023-01-28T07:38:50;1.89;75.52
77839;SHT31;67034;43.226;27.932;2023-01-28T07:41:16;2.02;75.32
77839;SHT31;67034;43.226;27.932;2023-01-28T07:43:41;1.99;75.12
77839;SHT31;67034;43.226;27.932;2023-01-28T07:46:08;2.27;74.30
77839;SHT31;67034;43.226;27.932;2023-01-28T07:48:34;2.43;73.77
77839;SHT31;67034;43.226;27.932;2023-01-28T07:51:00;2.80;72.47
77839;SHT31;67034;43.226;27.932;2023-01-28T07:53:26;2.53;72.78
77839;SHT31;67034;43.226;27.932;2023-01-28T07:55:56;2.37;73.30
77839;SHT31;67034;43.226;27.932;2023-01-28T07:58:22;2.41;73.25
77839;SHT31;67034;43.226;27.932;2023-01-28T08:00:48;2.58;72.46
77839;SHT31;67034;43.226;27.932;2023-01-28T08:03:15;2.80;72.91
77839;SHT31;67034;43.226;27.932;2023-01-28T08:05:43;2.94;72.20
77839;SHT31;67034;43.226;27.932;2023-01-28T08:08:10;2.88;73.08
77839;SHT31;67034;43.226;27.932;2023-01-28T08:10:36;2.68;72.65
77839;SHT31;67034;43.226;27.932;2023-01-28T08:13:02;2.88;72.05
77839;SHT31;67034;43.226;27.932;2023-01-28T08:15:28;2.99;71.59
77839;SHT31;67034;43.226;27.932;2023-01-28T08:17:55;3.33;70.08
77839;SHT31;67034;43.226;27.932;2023-01-28T08:20:22;3.34;69.53
77839;SHT31;67034;43.226;27.932;2023-01-28T08:22:48;3.11;70.52
77839;SHT31;67034;43.226;27.932;2023-01-28T08:25:14;2.89;70.49
77839;SHT31;67034;43.226;27.932;2023-01-28T08:27:40;2.91;70.49
77839;SHT31;67034;43.226;27.932;2023-01-28T08:30:07;2.78;70.42
77839;SHT31;67034;43.226;27.932;2023-01-28T08:32:34;2.81;70.68
77839;SHT31;67034;43.226;27.932;2023-01-28T08:35:00;2.71;70.91
77839;SHT31;67034;43.226;27.932;2023-01-28T08:37:27;2.47;71.70
77839;SHT31;67034;43.226;27.932;2023-01-28T08:39:53;2.55;71.74
77839;SHT31;67034;43.226;27.932;2023-01-28T08:42:20;2.74;70.34
77839;SHT31;67034;43.226;27.932;2023-01-28T08:44:46;2.66;70.85
77839;SHT31;67034;43.226;27.932;2023-01-28T08:47:12;2.60;70.41
77839;SHT31;67034;43.226;27.932;2023-01-28T08:49:38;2.53;70.53
77839;SHT31;67034;43.226;27.932;2023-01-28T08:52:04;2.47;70.75
77839;SHT31;67034;43.226;27.932;2023-01-28T08:54:31;2.53;71.27
77839;SHT31;67034;43.226;27.932;2023-01-28T08:56:57;2.51;71.05
77839;SHT31;67034;43.226;27.932;2023-01-28T08:59:23;2.44;71.35
77839;SHT31;67034;43.226;27.932;2023-01-28T09:01:49;2.58;70.90
77839;SHT31;67034;43.226;27.932;2023-01-28T09:04:14;2.82;69.93
77839;SHT31;67034;43.226;27.932;2023-01-28T09:06:40;2.33;71.34
77839;SHT31;67034;43.226;27.932;2023-01-28T09:09:06;2.51;71.05
77839;SHT31;67034;43.226;27.932;2023-01-28T09:11:33;2.61;70.63
77839;SHT31;67034;43.226;27.932;2023-01-28T09:13:58;2.60;70.46
77839;SHT31;67034;43.226;27.932;2023-01-28T09:16:24;2.55;70.76
77839;SHT31;67034;43.226;27.932;2023-01-28T09:18:51;2.51;70.79
77839;SHT31;67034;43.226;27.932;2023-01-28T09:21:18;2.29;71.24
77839;SHT31;67034;43.226;27.932;2023-01-28T09:23:44;2.57;70.60
77839;SHT31;67034;43.226;27.932;2023-01-28T09:26:10;2.38;71.00
77839;SHT31;67034;43.226;27.932;2023-01-28T09:28:37;2.48;70.51
77839;SHT31;67034;43.226;27.932;2023-01-28T09:31:04;2.36;70.93
77839;SHT31;67034;43.226;27.932;2023-01-28T09:33:30;2.27;71.26
77839;SHT31;67034;43.226;27.932;2023-01-28T09:35:58;2.34;71.13
77839;SHT31;67034;43.226;27.932;2023-01-28T09:38:24;2.36;71.04
77839;SHT31;67034;43.226;27.932;2023-01-28T09:40:50;2.55;70.68
77839;SHT31;67034;43.226;27.932;2023-01-28T09:43:29;2.20;71.05
77839;SHT31;67034;43.226;27.932;2023-01-28T09:46:04;2.27;71.09
77839;SHT31;67034;43.226;27.932;2023-01-28T09:48:35;2.27;71.38
77839;SHT31;67034;43.226;27.932;2023-01-28T09:51:03;2.15;71.51
77839;SHT31;67034;43.226;27.932;2023-01-28T09:53:35;2.50;70.62
77839;SHT31;67034;43.226;27.932;2023-01-28T09:56:05;2.45;70.31
77839;SHT31;67034;43.226;27.932;2023-01-28T09:58:32;2.60;70.03
77839;SHT31;67034;43.226;27.932;2023-01-28T10:01:04;2.70;69.99
77839;SHT31;67034;43.226;27.932;2023-01-28T10:03:42;2.70;70.26
77839;SHT31;67034;43.226;27.932;2023-01-28T10:06:18;2.91;69.45
77839;SHT31;67034;43.226;27.932;2023-01-28T10:09:24;3.18;68.50
77839;SHT31;67034;43.226;27.932;2023-01-28T10:12:02;3.18;68.16
77839;SHT31;67034;43.226;27.932;2023-01-28T10:14:40;3.11;68.53
77839;SHT31;67034;43.226;27.932;2023-01-28T10:17:15;2.89;69.05
77839;SHT31;67034;43.226;27.932;2023-01-28T10:19:45;2.95;68.69
77839;SHT31;67034;43.226;27.932;2023-01-28T10:22:18;2.84;69.86
77839;SHT31;67034;43.226;27.932;2023-01-28T10:24:48;2.92;69.09
77839;SHT31;67034;43.226;27.932;2023-01-28T10:27:18;2.78;69.38
77839;SHT31;67034;43.226;27.932;2023-01-28T10:29:45;2.57;70.09
77839;SHT31;67034;43.226;27.932;2023-01-28T10:32:22;2.68;70.39
77839;SHT31;67034;43.226;27.932;2023-01-28T10:34:51;2.48;70.87
77839;SHT31;67034;43.226;27.932;2023-01-28T10:37:18;2.64;70.22
77839;SHT31;67034;43.226;27.932;2023-01-28T10:39:44;2.36;70.95
77839;SHT31;67034;43.226;27.932;2023-01-28T10:42:16;2.19;70.95
77839;SHT31;67034;43.226;27.932;2023-01-28T10:44:46;2.16;71.37
77839;SHT31;67034;43.226;27.932;2023-01-28T10:47:14;2.57;70.76
77839;SHT31;67034;43.226;27.932;2023-01-28T10:49:45;2.48;70.47
77839;SHT31;67034;43.226;27.932;2023-01-28T10:52:12;2.41;70.28
77839;SHT31;67034;43.226;27.932;2023-01-28T10:54:39;2.43;70.26
77839;SHT31;67034;43.226;27.932;2023-01-28T10:57:09;2.10;71.23
77839;SHT31;67034;43.226;27.932;2023-01-28T10:59:38;2.30;70.80
77839;SHT31;67034;43.226;27.932;2023-01-28T11:02:23;2.23;70.98
77839;SHT31;67034;43.226;27.932;2023-01-28T11:05:01;2.19;71.11
77839;SHT31;67034;43.226;27.932;2023-01-28T11:07:26;2.16;70.64
77839;SHT31;67034;43.226;27.932;2023-01-28T11:09:52;2.26;70.87
77839;SHT31;67034;43.226;27.932;2023-01-28T11:12:20;2.22;71.28
77839;SHT31;67034;43.226;27.932;2023-01-28T11:14:49;2.06;71.74
77839;SHT31;67034;43.226;27.932;2023-01-28T11:17:17;2.06;71.49
77839;SHT31;67034;43.226;27.932;2023-01-28T11:19:43;2.09;71.39
77839;SHT31;67034;43.226;27.932;2023-01-28T11:22:20;1.88;71.33
77839;SHT31;67034;43.226;27.932;2023-01-28T11:24:47;2.12;71.37
77839;SHT31;67034;43.226;27.932;2023-01-28T11:27:15;2.02;71.35
77839;SHT31;67034;43.226;27.932;2023-01-28T11:29:42;1.85;71.62
77839;SHT31;67034;43.226;27.932;2023-01-28T11:32:16;2.06;71.75
77839;SHT31;67034;43.226;27.932;2023-01-28T11:34:48;2.30;71.35
77839;SHT31;67034;43.226;27.932;2023-01-28T11:37:15;2.12;71.69
77839;SHT31;67034;43.226;27.932;2023-01-28T11:39:41;1.94;71.64
77839;SHT31;67034;43.226;27.932;2023-01-28T11:42:18;2.05;71.94
77839;SHT31;67034;43.226;27.932;2023-01-28T11:44:44;1.95;72.14
77839;SHT31;67034;43.226;27.932;2023-01-28T11:50:18;2.16;72.08
77839;SHT31;67034;43.226;27.932;2023-01-28T11:52:54;1.95;71.89
77839;SHT31;67034;43.226;27.932;2023-01-28T11:55:36;2.01;72.46
77839;SHT31;67034;43.226;27.932;2023-01-28T11:58:10;2.01;72.16
77839;SHT31;67034;43.226;27.932;2023-01-28T12:00:44;2.10;71.50
77839;SHT31;67034;43.226;27.932;2023-01-28T12:03:25;1.96;72.03
77839;SHT31;67034;43.226;27.932;2023-01-28T12:05:57;1.91;72.56
77839;SHT31;67034;43.226;27.932;2023-01-28T12:08:37;1.85;72.90
77839;SHT31;67034;43.226;27.932;2023-01-28T12:11:22;1.81;72.76
77839;SHT31;67034;43.226;27.932;2023-01-28T12:14:13;1.64;73.17
77839;SHT31;67034;43.226;27.932;2023-01-28T12:16:56;1.62;73.00
77839;SHT31;67034;43.226;27.932;2023-01-28T12:19:56;1.75;72.73
77839;SHT31;67034;43.226;27.932;2023-01-28T12:22:49;1.67;72.76
77839;SHT31;67034;43.226;27.932;2023-01-28T12:25:32;2.01;72.32
77839;SHT31;67034;43.226;27.932;2023-01-28T12:28:07;1.76;72.93
77839;SHT31;67034;43.226;27.932;2023-01-28T12:30:45;1.88;73.04
77839;SHT31;67034;43.226;27.932;2023-01-28T12:36:24;1.78;73.36
77839;SHT31;67034;43.226;27.932;2023-01-28T12:39:02;1.85;73.22
77839;SHT31;67034;43.226;27.932;2023-01-28T12:41:36;1.91;72.94
77839;SHT31;67034;43.226;27.932;2023-01-28T12:44:08;1.83;72.83
77839;SHT31;67034;43.226;27.932;2023-01-28T12:46:39;2.07;72.29
77839;SHT31;67034;43.226;27.932;2023-01-28T12:49:11;1.86;72.17
77839;SHT31;67034;43.226;27.932;2023-01-28T12:51:47;1.94;72.14
77839;SHT31;67034;43.226;27.932;2023-01-28T12:54:18;2.07;72.12
77839;SHT31;67034;43.226;27.932;2023-01-28T12:56:50;2.19;71.73
77839;SHT31;67034;43.226;27.932;2023-01-28T12:59:21;1.94;72.60
77839;SHT31;67034;43.226;27.932;2023-01-28T13:01:53;2.10;72.26
77839;SHT31;67034;43.226;27.932;2023-01-28T13:04:28;1.98;72.80
77839;SHT31;67034;43.226;27.932;2023-01-28T13:06:57;2.19;72.05
77839;SHT31;67034;43.226;27.932;2023-01-28T13:09:26;1.98;72.02
77839;SHT31;67034;43.226;27.932;2023-01-28T13:11:57;2.44;70.57
77839;SHT31;67034;43.226;27.932;2023-01-28T13:14:26;2.38;70.72
77839;SHT31;67034;43.226;27.932;2023-01-28T13:16:53;2.33;70.62
77839;SHT31;67034;43.226;27.932;2023-01-28T13:19:24;2.05;71.47
77839;SHT31;67034;43.226;27.932;2023-01-28T13:22:09;1.92;72.37
77839;SHT31;67034;43.226;27.932;2023-01-28T13:24:35;2.33;71.69
77839;SHT31;67034;43.226;27.932;2023-01-28T13:27:12;2.26;71.29
77839;SHT31;67034;43.226;27.932;2023-01-28T13:29:47;2.02;71.67
77839;SHT31;67034;43.226;27.932;2023-01-28T13:32:31;2.16;70.71
77839;SHT31;67034;43.226;27.932;2023-01-28T13:34:59;2.03;71.17
77839;SHT31;67034;43.226;27.932;2023-01-28T13:37:30;1.98;71.40
77839;SHT31;67034;43.226;27.932;2023-01-28T13:40:01;2.12;71.02
77839;SHT31;67034;43.226;27.932;2023-01-28T13:42:29;2.07;70.90
77839;SHT31;67034;43.226;27.932;2023-01-28T13:45:11;1.88;71.58
77839;SHT31;67034;43.226;27.932;2023-01-28T13:47:38;2.16;70.83
77839;SHT31;67034;43.226;27.932;2023-01-28T13:50:06;2.23;70.13
77839;SHT31;67034;43.226;27.932;2023-01-28T13:52:43;2.10;71.00
77839;SHT31;67034;43.226;27.932;2023-01-28T13:55:16;2.01;71.19
77839;SHT31;67034;43.226;27.932;2023-01-28T13:58:10;1.81;71.89
77839;SHT31;67034;43.226;27.932;2023-01-28T14:00:50;2.03;71.42
77839;SHT31;67034;43.226;27.932;2023-01-28T14:03:40;2.16;71.17
77839;SHT31;67034;43.226;27.932;2023-01-28T14:12:34;1.88;71.67
77839;SHT31;67034;43.226;27.932;2023-01-28T14:15:12;1.85;72.10
77839;SHT31;67034;43.226;27.932;2023-01-28T14:17:43;1.75;71.74
77839;SHT31;67034;43.226;27.932;2023-01-28T14:20:16;1.78;71.85
77839;SHT31;67034;43.226;27.932;2023-01-28T14:22:43;1.74;71.45
77839;SHT31;67034;43.226;27.932;2023-01-28T14:25:11;1.82;71.65
77839;SHT31;67034;43.226;27.932;2023-01-28T14:27:42;1.86;71.80
77839;SHT31;67034;43.226;27.932;2023-01-28T14:30:17;1.89;71.17
77839;SHT31;67034;43.226;27.932;2023-01-28T14:32:47;1.83;71.29
77839;SHT31;67034;43.226;27.932;2023-01-28T14:35:18;2.07;71.01
77839;SHT31;67034;43.226;27.932;2023-01-28T14:37:45;2.53;69.40
77839;SHT31;67034;43.226;27.932;2023-01-28T14:40:13;2.13;70.83
77839;SHT31;67034;43.226;27.932;2023-01-28T14:42:45;2.23;70.49
77839;SHT31;67034;43.226;27.932;2023-01-28T14:45:28;2.30;70.91
77839;SHT31;67034;43.226;27.932;2023-01-28T14:48:10;2.16;71.09
77839;SHT31;67034;43.226;27.932;2023-01-28T14:51:01;2.16;71.32
77839;SHT31;67034;43.226;27.932;2023-01-28T14:53:57;1.79;71.59
77839;SHT31;67034;43.226;27.932;2023-01-28T14:56:35;2.10;71.39
77839;SHT31;67034;43.226;27.932;2023-01-28T14:59:14;1.91;71.62
77839;SHT31;67034;43.226;27.932;2023-01-28T15:01:44;2.19;70.86
77839;SHT31;67034;43.226;27.932;2023-01-28T15:04:22;2.09;71.81
77839;SHT31;67034;43.226;27.932;2023-01-28T15:06:47;2.19;71.03
77839;SHT31;67034;43.226;27.932;2023-01-28T15:09:13;1.96;70.94
77839;SHT31;67034;43.226;27.932;2023-01-28T15:11:42;1.96;71.59
77839;SHT31;67034;43.226;27.932;2023-01-28T15:14:13;2.03;71.23
77839;SHT31;67034;43.226;27.932;2023-01-28T15:16:47;2.06;71.08
77839;SHT31;67034;43.226;27.932;2023-01-28T15:19:14;1.75;71.71
77839;SHT31;67034;43.226;27.932;2023-01-28T15:21:42;1.82;71.81
77839;SHT31;67034;43.226;27.932;2023-01-28T15:24:11;1.71;72.36
77839;SHT31;67034;43.226;27.932;2023-01-28T15:26:37;2.16;70.86
77839;SHT31;67034;43.226;27.932;2023-01-28T15:29:03;1.94;71.31
77839;SHT31;67034;43.226;27.932;2023-01-28T15:31:30;2.02;71.26
77839;SHT31;67034;43.226;27.932;2023-01-28T15:34:00;2.10;71.16
77839;SHT31;67034;43.226;27.932;2023-01-28T15:36:27;2.02;71.42
77839;SHT31;67034;43.226;27.932;2023-01-28T15:38:53;1.86;71.68
77839;SHT31;67034;43.226;27.932;2023-01-28T15:41:21;2.19;70.77
77839;SHT31;67034;43.226;27.932;2023-01-28T15:43:48;2.17;70.85
77839;SHT31;67034;43.226;27.932;2023-01-28T15:46:15;2.20;70.69
77839;SHT31;67034;43.226;27.932;2023-01-28T15:48:44;2.10;70.89
77839;SHT31;67034;43.226;27.932;2023-01-28T15:51:19;1.92;71.31
77839;SHT31;67034;43.226;27.932;2023-01-28T15:53:46;1.94;72.15
77839;SHT31;67034;43.226;27.932;2023-01-28T15:56:14;2.01;71.00
77839;SHT31;67034;43.226;27.932;2023-01-28T15:58:41;1.96;71.02
77839;SHT31;67034;43.226;27.932;2023-01-28T16:01:14;1.82;71.92